Darien Center, NY (14040)

5:43 PM EDT on September 02, 2015 (GMT -0400)
Darien, NY | | Change Station
CLOSE
Current Station
Personal Weather Station
Location: Corfu, NY
Elevation: 886 ft
Nearby Weather Stations

Elev 886 ft 42.95 °N, 78.38 °W | Updated 13 minutes ago

Partly Cloudy
Partly Cloudy
81.0 °F
Feels Like 85 °F
N
3.1
Wind Variable Wind from WSW

Today
High -- | Low -- °F
--% Chance of Precip.
Yesterday
High -- | Low -- °F
Precip. -- in
6:38 AM 7:46 PM
Waning Gibbous, 77% visible
Pressure 29.96 in
Visibility 9.0 miles
Clouds Few 3000 ft
Few 11000 ft
Scattered Clouds 15000 ft
Mostly Cloudy 20000 ft
Mostly Cloudy 25000 ft
Heat Index 85 °F
Dew Point 72 °F
Humidity 74%
Rainfall 0.00 in
Snow Depth Not available.
UV 2 out of 12
Pollen 10.90 out of 12
Air Quality Not available.
Flu Activity Not available.
METAR KBUF 022054Z 24009KT 9SM FEW030 FEW110 SCT150 BKN200 BKN250 26/20 A2997 RMK AO2 SLP144 CB DSNT NE-E T02610200 58014
Pressure 29.96 in
Visibility 9.0 miles
Clouds Few 3000 ft
Few 11000 ft
Scattered Clouds 15000 ft
Mostly Cloudy 20000 ft
Mostly Cloudy 25000 ft
Heat Index 85 °F
Dew Point 72 °F
Humidity 74%
Rainfall 0.00 in
Snow Depth Not available.
UV 2 out of 12
Pollen 10.90 out of 12
Air Quality Not available.
Flu Activity Not available.
METAR KBUF 022054Z 24009KT 9SM FEW030 FEW110 SCT150 BKN200 BKN250 26/20 A2997 RMK AO2 SLP144 CB DSNT NE-E T02610200 58014

10-Day Weather Forecast

×

Almanac

Astronomy

Sep. 02, 2015 Rise Set
Actual Time
Civil Twilight
Nautical Twilight
Astronomical Twilight
Moon
Length of Visible Light
Length of Day
Tomorrow will be .
, % of the Moon is Illuminated

Today's Extremes

State Highs State Lows

Community

WunderPhotos

Upload Photos

1,851,818 photos uploaded!

WunderBlogs® & News

Nearby

Air Quality

  Air Quality AQ Index Pollutant
Not available.

Snow Depth

Station Depth Elevation

Earthquake Activity

City Distance Mag. Time & Date
Minimum magnitude displayed is 2.5.

Coastal Water Temperatures

Place Temperature

Stations

Nearby Weather Stations

Station Location Temp. Windchill Dew Point Humidity Wind Precip. Elev Updated Type